OOCL Dalian — VRFW9 — position and weather

sailwx.info

Track history (hours):
 
Tides and Currents Weather Stations Pressure Air Temp Water Temp Dewpoint Dewpoint Depression Visibility Wind Speed Wind Dir Waves Ship Positions

OOCL Dalian

Last reported at 2018-Feb-22 17:10 UTC. Time now 2018-Feb-23 00:55 UTC.
Position N 38°10' E 121°53'.

Length 260 m; draft 8.4 m.

Type: Cargo ship. MMSI: 477627800.

Date/timePositionNaut miles runAvg speedWind from/ knotsBaromVisibWave heightAir tempDewpointWater temp
2018-Feb-22 17:10N 38°10' E 121°53'214.5
2018-Feb-22 17:00N 38°09' E 121°55'1014.5
2018-Feb-22 16:20N 38°04' E 122°06'514.6
2018-Feb-22 16:00N 38°02' E 122°11'  
2018-Feb-17 01:47N 24°13' E 118°50'310.8
2018-Feb-17 01:30N 24°11' E 118°48'710.9
2018-Feb-17 00:54N 24°08' E 118°42'511.6
2018-Feb-17 00:30N 24°05' E 118°38'611.8
2018-Feb-17 00:00N 24°01' E 118°32'611.4
2018-Feb-16 23:30N 23°58' E 118°27'611.6
2018-Feb-16 23:00N 23°55' E 118°22'611.6
2018-Feb-16 22:30N 23°51' E 118°17'611.3
2018-Feb-16 22:00N 23°48' E 118°12'611.1
2018-Feb-16 21:28N 23°44' E 118°07'511.0
2018-Feb-16 21:00N 23°41' E 118°02'611.4
2018-Feb-16 20:30N 23°38' E 117°57'611.2
2018-Feb-16 20:00N 23°35' E 117°52'510.8
2018-Feb-16 19:30N 23°32' E 117°48'510.9
2018-Feb-16 19:00N 23°28' E 117°43'611.3
2018-Feb-16 18:30N 23°24' E 117°38'611.5
2018-Feb-16 18:00N 23°21' E 117°34'612.0
2018-Feb-16 17:30N 23°16' E 117°30'612.8
2018-Feb-16 16:59N 23°11' E 117°25'1313.6
2018-Feb-16 16:03N 23°01' E 117°17'214.0
2018-Feb-16 15:54N 22°59' E 117°15'  
Track history (hours):
 
Tides and Currents Weather Stations Pressure Air Temp Water Temp Dewpoint Dewpoint Depression Visibility Wind Speed Wind Dir Waves Ship Positions

OOCL Dalian

Last reported at 2018-Feb-22 17:10 UTC. Time now 2018-Feb-23 00:55 UTC.
Position N 38°10' E 121°53'.

Length 260 m; draft 8.4 m.

Type: Cargo ship. MMSI: 477627800.

Date/timePositionNaut miles runAvg speedWind from/ knotsBaromVisibWave heightAir tempDewpointWater temp
2018-Feb-22 17:10N 38°10' E 121°53'214.5
2018-Feb-22 17:00N 38°09' E 121°55'1014.5
2018-Feb-22 16:20N 38°04' E 122°06'514.6
2018-Feb-22 16:00N 38°02' E 122°11'  
2018-Feb-17 01:47N 24°13' E 118°50'310.8
2018-Feb-17 01:30N 24°11' E 118°48'710.9
2018-Feb-17 00:54N 24°08' E 118°42'511.6
2018-Feb-17 00:30N 24°05' E 118°38'611.8
2018-Feb-17 00:00N 24°01' E 118°32'611.4
2018-Feb-16 23:30N 23°58' E 118°27'611.6
2018-Feb-16 23:00N 23°55' E 118°22'611.6
2018-Feb-16 22:30N 23°51' E 118°17'611.3
2018-Feb-16 22:00N 23°48' E 118°12'611.1
2018-Feb-16 21:28N 23°44' E 118°07'511.0
2018-Feb-16 21:00N 23°41' E 118°02'611.4
2018-Feb-16 20:30N 23°38' E 117°57'611.2
2018-Feb-16 20:00N 23°35' E 117°52'510.8
2018-Feb-16 19:30N 23°32' E 117°48'510.9
2018-Feb-16 19:00N 23°28' E 117°43'611.3
2018-Feb-16 18:30N 23°24' E 117°38'611.5
2018-Feb-16 18:00N 23°21' E 117°34'612.0
2018-Feb-16 17:30N 23°16' E 117°30'612.8
2018-Feb-16 16:59N 23°11' E 117°25'1313.6
2018-Feb-16 16:03N 23°01' E 117°17'214.0
2018-Feb-16 15:54N 22°59' E 117°15'  

Dump ship's entire track history